Childress Municipal Airport
KCDS : now visible

Airfield :











YOU CAN JOIN US ON...

 
LOGIN :

Register | Disclaimer

   EN    FR    IT 

 









Legend :    VFR   Marginal VFR   IFR   Intensive IFR   Very Intensive IFR
Visi :
Ceiling :
>= 8 km
>= 3000ft
5 to 8 km
1000 to 3000 ft
1500m to 5 km
500 to 1000 ft
800 to 1500m
200 to 500 ft
< 800m
< 200 ft
Symbols :   Thunderstorms  Fog  Heavy snow  Heavy precipitations  Wind > 20 kt






- Airport Elevation : 1954 ft


KCDS - Childress Municipal

CURRENT METAR :
  • 130353Z AUTO 12004KT 10SM CLR 05/02 A2999 RMK AO2 SLP155 T00500022

EXPIRED METARs :
  • 130253Z AUTO 12005KT 10SM CLR 07/03 A3000 RMK AO2 SLP160 T00670028 50003
  • 130153Z AUTO 10006KT 10SM CLR 09/03 A3000 RMK AO2 SLP160 T00890033

TAF KCDS
Valid from the 13 at 00:00 until the 14 at 00:00 UTC


122329Z 1300/1324 VRB05KT P6SM SCT250
FM132000 33010KT P6SM SKC



MET'MAP, your aeronautical weather chart ! - Copyright ORBIFLY December 2007 - Disclaimer

ORBIFLY MET'MAP TEAM :

Programming & Development : Alexandra Zaïnal
Concept & original design : Baudouin d'Aumeries
Assistance for programming : Marc-Olivier Méhu
Technical & hardware support : Manuel Goepfert

Contact : metmap@orbifly.com




SOURCES & CREDITS :

   NOAA       Earth
Advisory